createdAt,value
2022-10-02T00:02:36.307Z,97211.66
2022-10-02T00:05:19.373Z,97173.84
2022-10-02T00:07:53.115Z,97193.84
2022-10-02T00:10:38.532Z,97172.53
2022-10-02T00:13:07.571Z,97186.84
2022-10-02T00:15:35.432Z,97223.69
2022-10-02T00:18:04.542Z,97194.22
2022-10-02T00:20:53.794Z,97186.41
2022-10-02T00:23:48.251Z,97208.44
2022-10-02T00:26:20.991Z,97204.22
2022-10-02T00:29:20.516Z,97220.19
2022-10-02T00:31:59.179Z,97219.91
2022-10-02T00:34:50.079Z,97218.53
2022-10-02T00:37:35.785Z,97201.00
2022-10-02T00:40:32.736Z,97184.28
2022-10-02T00:43:14.319Z,97212.38
2022-10-02T00:46:05.169Z,97210.00
2022-10-02T00:48:40.394Z,97212.16
2022-10-02T00:51:22.241Z,97215.38
2022-10-02T00:54:07.384Z,97203.19
2022-10-02T00:56:52.642Z,97207.56
2022-10-02T00:59:31.887Z,97234.56
2022-10-02T01:01:59.955Z,97236.19
2022-10-02T01:04:31.951Z,97226.19
2022-10-02T01:06:58.678Z,97212.69
2022-10-02T01:09:25.387Z,97221.38
2022-10-02T01:11:52.130Z,97215.88
2022-10-02T01:14:18.907Z,97230.19
2022-10-02T01:16:45.602Z,97237.69
2022-10-02T01:19:28.215Z,97252.72
2022-10-02T01:22:00.858Z,97242.88
2022-10-02T01:24:33.841Z,97252.81
2022-10-02T01:27:00.404Z,97241.94
2022-10-02T01:29:27.242Z,97230.81
2022-10-02T01:31:53.819Z,97252.38
2022-10-02T01:34:20.998Z,97238.44
2022-10-02T01:36:47.926Z,97252.75
2022-10-02T01:39:14.654Z,97227.69
2022-10-02T01:41:42.504Z,97230.34
2022-10-02T01:44:09.092Z,97236.69
2022-10-02T01:46:40.326Z,97221.50
2022-10-02T01:49:28.786Z,97209.47
2022-10-02T01:52:04.014Z,97234.56
2022-10-02T01:54:59.441Z,97229.47
2022-10-02T01:57:44.691Z,97215.44
2022-10-02T02:00:18.968Z,97210.94
2022-10-02T02:02:48.478Z,97227.34
2022-10-02T02:05:33.273Z,97242.25
2022-10-02T02:08:14.308Z,97194.50
2022-10-02T02:11:11.845Z,97233.34
2022-10-02T02:13:38.328Z,97213.41
2022-10-02T02:16:26.513Z,97240.88
2022-10-02T02:19:05.239Z,97247.06
2022-10-02T02:21:39.392Z,97240.38
2022-10-02T02:24:10.119Z,97241.97
2022-10-02T02:26:36.979Z,97262.25
2022-10-02T02:29:06.405Z,97211.56
2022-10-02T02:31:35.817Z,97230.09
2022-10-02T02:34:03.874Z,97239.06
2022-10-02T02:36:36.860Z,97218.81
2022-10-02T02:39:07.468Z,97257.38
2022-10-02T02:41:38.303Z,97263.50
2022-10-02T02:44:26.096Z,97249.56
2022-10-02T02:47:03.229Z,97218.16
2022-10-02T02:49:34.670Z,97225.44
2022-10-02T02:52:01.804Z,97235.94
2022-10-02T02:54:42.291Z,97232.22
2022-10-02T02:57:08.930Z,97248.41
2022-10-02T02:59:36.676Z,97252.56
2022-10-02T03:02:03.301Z,97259.19
2022-10-02T03:04:29.974Z,97261.66
2022-10-02T03:06:58.776Z,97254.91
2022-10-02T03:09:25.380Z,97253.78
2022-10-02T03:12:12.035Z,97254.38
2022-10-02T03:14:53.798Z,97282.09
2022-10-02T03:17:32.400Z,97240.00
2022-10-02T03:20:11.379Z,97268.16
2022-10-02T03:22:55.642Z,97269.75
2022-10-02T03:25:22.155Z,97258.16
2022-10-02T03:27:53.682Z,97264.38
2022-10-02T03:30:20.367Z,97231.19
2022-10-02T03:32:47.298Z,97237.72
2022-10-02T03:35:14.065Z,97230.66
2022-10-02T03:37:45.896Z,97260.06
2022-10-02T03:40:12.550Z,97245.47
2022-10-02T03:42:39.286Z,97237.16
2022-10-02T03:45:06.438Z,97239.84
2022-10-02T03:47:33.012Z,97242.56
2022-10-02T03:49:59.555Z,97237.97
2022-10-02T03:52:26.127Z,97233.66
2022-10-02T03:54:56.985Z,97251.41
2022-10-02T03:57:24.730Z,97242.03
2022-10-02T03:59:57.378Z,97250.13
2022-10-02T04:02:34.849Z,97250.13
2022-10-02T04:05:16.676Z,97253.88
2022-10-02T04:07:43.668Z,97280.09
2022-10-02T04:10:12.964Z,97258.97
2022-10-02T04:12:41.808Z,97293.25
2022-10-02T04:15:36.280Z,97280.31
2022-10-02T04:18:07.973Z,97255.25
2022-10-02T04:20:52.894Z,97272.75
2022-10-02T04:23:25.531Z,97255.03
2022-10-02T04:25:53.808Z,97232.34
2022-10-02T04:28:22.728Z,97252.31
2022-10-02T04:30:52.637Z,97286.53
2022-10-02T04:33:20.526Z,97282.22
2022-10-02T04:35:56.426Z,97276.03
2022-10-02T04:38:33.349Z,97256.34
2022-10-02T04:41:02.925Z,97274.84
2022-10-02T04:43:50.995Z,97271.13
2022-10-02T04:46:23.545Z,97281.94
2022-10-02T04:49:14.793Z,97257.66
2022-10-02T04:51:56.583Z,97266.03
2022-10-02T04:54:25.922Z,97265.75
2022-10-02T04:57:02.531Z,97272.53
2022-10-02T04:59:44.329Z,97259.28
2022-10-02T05:02:25.001Z,97282.00
2022-10-02T05:05:13.254Z,97257.94
2022-10-02T05:07:48.677Z,97277.09
2022-10-02T05:10:29.219Z,97261.75
2022-10-02T05:13:09.068Z,97284.13
2022-10-02T05:15:46.244Z,97272.31
2022-10-02T05:18:51.979Z,97246.13
2022-10-02T05:21:30.921Z,97266.38
2022-10-02T05:24:22.055Z,97257.19
2022-10-02T05:27:14.076Z,97270.19
2022-10-02T05:30:13.506Z,97251.00
2022-10-02T05:33:01.341Z,97285.56
2022-10-02T05:35:45.594Z,97267.50
2022-10-02T05:38:20.960Z,97258.81
2022-10-02T05:41:07.953Z,97273.34
2022-10-02T05:43:56.149Z,97265.81
2022-10-02T05:46:27.131Z,97283.78
2022-10-02T05:49:06.881Z,97243.59
2022-10-02T05:51:52.100Z,97282.69
2022-10-02T05:54:21.868Z,97266.25
2022-10-02T05:56:53.737Z,97281.88
2022-10-02T05:59:24.386Z,97280.84
2022-10-02T06:01:51.016Z,97290.25
2022-10-02T06:04:37.840Z,97282.91
2022-10-02T06:07:07.566Z,97321.25
2022-10-02T06:09:38.723Z,97276.50
2022-10-02T06:12:11.800Z,97252.69
2022-10-02T06:14:39.425Z,97272.38
2022-10-02T06:17:11.730Z,97296.31
2022-10-02T06:20:11.175Z,97299.31
2022-10-02T06:22:44.265Z,97274.25
2022-10-02T06:25:29.641Z,97269.56
2022-10-02T06:28:11.217Z,97294.59
2022-10-02T06:30:41.092Z,97292.91
2022-10-02T06:33:24.710Z,97286.94
2022-10-02T06:36:21.863Z,97266.38
2022-10-02T06:39:22.467Z,97245.56
2022-10-02T06:42:14.764Z,97290.00
2022-10-02T06:44:47.575Z,97271.72
2022-10-02T06:47:35.792Z,97280.41
2022-10-02T06:50:36.608Z,97267.34
2022-10-02T06:53:31.399Z,97279.16
2022-10-02T06:56:26.195Z,97281.28
2022-10-02T06:59:40.658Z,97263.97
2022-10-02T07:02:20.240Z,97277.69
2022-10-02T07:04:52.722Z,97283.31
2022-10-02T07:07:41.320Z,97267.09
2022-10-02T07:10:14.077Z,97305.56
2022-10-02T07:13:01.815Z,97306.72
2022-10-02T07:15:31.290Z,97272.41
2022-10-02T07:17:57.768Z,97252.56
2022-10-02T07:20:30.270Z,97266.38
2022-10-02T07:23:11.950Z,97264.69
2022-10-02T07:25:44.254Z,97273.59
2022-10-02T07:28:25.791Z,97266.72
2022-10-02T07:31:01.375Z,97252.03
2022-10-02T07:33:29.985Z,97270.03
2022-10-02T07:36:05.372Z,97253.28
2022-10-02T07:38:34.860Z,97299.13
2022-10-02T07:41:24.398Z,97247.19
2022-10-02T07:44:06.062Z,97271.53
2022-10-02T07:46:46.643Z,97244.81
2022-10-02T07:49:17.119Z,97252.31
2022-10-02T07:51:43.592Z,97287.38
2022-10-02T07:54:19.142Z,97280.25
2022-10-02T07:56:45.802Z,97273.56
2022-10-02T07:59:13.659Z,97265.09
2022-10-02T08:01:40.382Z,97291.06
2022-10-02T08:04:35.979Z,97267.91
2022-10-02T08:07:03.607Z,97313.47
2022-10-02T08:09:47.306Z,97292.75
2022-10-02T08:12:23.125Z,97286.66
2022-10-02T08:14:49.755Z,97288.56
2022-10-02T08:17:24.833Z,97303.69
2022-10-02T08:19:51.501Z,97287.66
2022-10-02T08:22:31.061Z,97287.84
2022-10-02T08:24:59.725Z,97307.31
2022-10-02T08:27:48.215Z,97246.59
2022-10-02T08:30:15.175Z,97285.66
2022-10-02T08:32:41.781Z,97271.84
2022-10-02T08:35:16.262Z,97263.94
2022-10-02T08:38:18.104Z,97280.66
2022-10-02T08:41:06.457Z,97296.63
2022-10-02T08:43:53.165Z,97290.91
2022-10-02T08:46:24.570Z,97280.78
2022-10-02T08:49:28.137Z,97274.66
2022-10-02T08:52:25.073Z,97280.88
2022-10-02T08:55:11.135Z,97272.97
2022-10-02T08:57:55.378Z,97272.25
2022-10-02T09:00:31.493Z,97268.81
2022-10-02T09:03:25.511Z,97269.44
2022-10-02T09:06:49.027Z,97282.13
2022-10-02T09:09:42.975Z,97260.03
2022-10-02T09:12:44.458Z,97263.03
2022-10-02T09:15:18.400Z,97283.69
2022-10-02T09:17:51.949Z,97276.38
2022-10-02T09:20:41.322Z,97245.22
2022-10-02T09:23:07.869Z,97263.22
2022-10-02T09:25:40.432Z,97254.63
2022-10-02T09:28:26.144Z,97248.13
2022-10-02T09:31:28.703Z,97246.41
2022-10-02T09:34:04.429Z,97229.78
2022-10-02T09:36:49.720Z,97218.16
2022-10-02T09:39:41.057Z,97235.25
2022-10-02T09:42:45.153Z,97252.13
2022-10-02T09:45:54.692Z,97237.09
2022-10-02T09:48:39.792Z,97218.44
2022-10-02T09:51:21.757Z,97240.38
2022-10-02T09:54:03.689Z,97241.47
2022-10-02T09:56:48.458Z,97219.94
2022-10-02T09:59:36.272Z,97257.63
2022-10-02T10:02:05.593Z,97227.47
2022-10-02T10:05:01.296Z,97217.81
2022-10-02T10:07:58.611Z,97227.34
2022-10-02T10:10:28.074Z,97231.75
2022-10-02T10:13:14.478Z,97227.84
2022-10-02T10:15:59.016Z,97200.41
2022-10-02T10:18:42.032Z,97195.66
2022-10-02T10:21:42.704Z,97213.81
2022-10-02T10:24:21.231Z,97228.78
2022-10-02T10:27:16.002Z,97215.03
2022-10-02T10:30:17.513Z,97202.59
2022-10-02T10:32:53.587Z,97210.72
2022-10-02T10:35:36.633Z,97191.75
2022-10-02T10:38:11.886Z,97208.59
2022-10-02T10:40:59.468Z,97209.31
2022-10-02T10:44:03.891Z,97197.28
2022-10-02T10:46:48.661Z,97204.63
2022-10-02T10:49:33.660Z,97210.63
2022-10-02T10:52:34.995Z,97223.38
2022-10-02T10:56:09.353Z,97214.44
2022-10-02T10:58:51.057Z,97217.03
2022-10-02T11:01:26.540Z,97205.09
2022-10-02T11:04:31.929Z,97203.91
2022-10-02T11:07:02.158Z,97204.50
2022-10-02T11:09:51.281Z,97188.06
2022-10-02T11:12:43.187Z,97156.59
2022-10-02T11:15:27.134Z,97160.94
2022-10-02T11:17:53.618Z,97179.75
2022-10-02T11:20:57.428Z,97154.22
2022-10-02T11:24:14.690Z,97170.97
2022-10-02T11:26:56.022Z,97161.22
2022-10-02T11:29:50.954Z,97156.72
2022-10-02T11:32:39.208Z,97166.03
2022-10-02T11:35:21.629Z,97136.78
2022-10-02T11:38:07.057Z,97170.06
2022-10-02T11:40:54.883Z,97175.88
2022-10-02T11:43:24.461Z,97168.66
2022-10-02T11:46:20.461Z,97148.72
2022-10-02T11:48:53.149Z,97145.44
2022-10-02T11:51:42.484Z,97167.28
2022-10-02T11:54:34.816Z,97162.84
2022-10-02T11:57:29.139Z,97156.53
2022-10-02T12:00:27.483Z,97155.66
2022-10-02T12:03:09.774Z,97143.00
2022-10-02T12:06:17.771Z,97151.84
2022-10-02T12:09:05.442Z,97117.41
2022-10-02T12:11:31.883Z,97145.50
2022-10-02T12:14:22.885Z,97138.03
2022-10-02T12:16:52.713Z,97169.16
2022-10-02T12:19:48.550Z,97157.03
2022-10-02T12:22:24.515Z,97191.28
2022-10-02T12:25:10.518Z,97168.25
2022-10-02T12:27:40.016Z,97174.56
2022-10-02T12:30:16.629Z,97195.09
2022-10-02T12:33:14.610Z,97164.56
2022-10-02T12:36:02.697Z,97188.09
2022-10-02T12:38:59.591Z,97169.16
2022-10-02T12:41:38.688Z,97188.09
2022-10-02T12:44:22.574Z,97185.66
2022-10-02T12:47:22.903Z,97163.75
2022-10-02T12:50:27.499Z,97135.72
2022-10-02T12:53:12.624Z,97133.22
2022-10-02T12:55:48.096Z,97130.53
2022-10-02T12:58:14.515Z,97149.03
2022-10-02T13:01:10.046Z,97155.75
2022-10-02T13:03:39.878Z,97127.00
2022-10-02T13:06:41.300Z,97134.88
2022-10-02T13:09:31.103Z,97120.72
2022-10-02T13:12:12.730Z,97110.72
2022-10-02T13:15:20.664Z,97118.97
2022-10-02T13:18:30.878Z,97133.50
2022-10-02T13:21:18.412Z,97118.97
2022-10-02T13:23:57.828Z,97123.09
2022-10-02T13:26:49.379Z,97107.66
2022-10-02T13:29:37.818Z,97134.25
2022-10-02T13:32:25.802Z,97093.78
2022-10-02T13:35:17.224Z,97136.03
2022-10-02T13:38:18.967Z,97137.75
2022-10-02T13:41:07.463Z,97136.56
2022-10-02T13:43:46.063Z,97156.38
2022-10-02T13:46:35.943Z,97165.69
2022-10-02T13:49:18.272Z,97138.56
2022-10-02T13:52:03.556Z,97131.66
2022-10-02T13:55:11.631Z,97119.94
2022-10-02T13:57:55.648Z,97137.13
2022-10-02T14:00:23.862Z,97105.25
2022-10-02T14:03:08.679Z,97121.38
2022-10-02T14:05:46.730Z,97116.09
2022-10-02T14:08:51.561Z,97087.34
2022-10-02T14:11:40.239Z,97094.47
2022-10-02T14:14:15.981Z,97096.38
2022-10-02T14:17:07.481Z,97111.50
2022-10-02T14:19:46.676Z,97099.38
2022-10-02T14:22:22.603Z,97104.91
2022-10-02T14:25:17.161Z,97082.28
2022-10-02T14:27:58.622Z,97078.47
2022-10-02T14:30:46.667Z,97077.75
2022-10-02T14:33:28.525Z,97092.59
2022-10-02T14:36:01.924Z,97092.19
2022-10-02T14:38:53.941Z,97102.06
2022-10-02T14:41:23.403Z,97087.47
2022-10-02T14:44:15.305Z,97100.88
2022-10-02T14:46:44.448Z,97100.47
2022-10-02T14:49:13.537Z,97090.50
2022-10-02T14:51:40.116Z,97096.41
2022-10-02T14:54:21.998Z,97097.94
2022-10-02T14:57:10.517Z,97113.38
2022-10-02T14:59:58.989Z,97075.09
2022-10-02T15:02:39.312Z,97079.41
2022-10-02T15:05:24.665Z,97097.03
2022-10-02T15:07:52.790Z,97082.72
2022-10-02T15:10:25.033Z,97086.53
2022-10-02T15:12:59.630Z,97113.97
2022-10-02T15:15:42.888Z,97082.59
2022-10-02T15:18:34.363Z,97091.94
2022-10-02T15:21:18.719Z,97110.75
2022-10-02T15:23:46.959Z,97069.78
2022-10-02T15:26:16.581Z,97077.91
2022-10-02T15:28:58.745Z,97085.09
2022-10-02T15:31:31.226Z,97096.13
2022-10-02T15:34:19.499Z,97103.97
2022-10-02T15:36:58.028Z,97080.72
2022-10-02T15:39:30.727Z,97083.03
2022-10-02T15:42:10.057Z,97065.63
2022-10-02T15:45:02.968Z,97101.97
2022-10-02T15:47:55.446Z,97089.97
2022-10-02T15:50:24.318Z,97080.56
2022-10-02T15:53:25.941Z,97075.13
2022-10-02T15:56:17.783Z,97095.06
2022-10-02T15:59:02.857Z,97077.72
2022-10-02T16:01:47.953Z,97079.94
2022-10-02T16:04:33.423Z,97106.97
2022-10-02T16:07:09.160Z,97104.09
2022-10-02T16:09:44.666Z,97118.88
2022-10-02T16:12:20.084Z,97134.63
2022-10-02T16:14:50.874Z,97129.22
2022-10-02T16:17:45.478Z,97140.63
2022-10-02T16:20:33.675Z,97162.56
2022-10-02T16:23:25.255Z,97136.59
2022-10-02T16:26:06.909Z,97117.78
2022-10-02T16:28:45.877Z,97165.06
2022-10-02T16:31:26.379Z,97136.78
2022-10-02T16:34:21.327Z,97133.63
2022-10-02T16:37:15.153Z,97107.25
2022-10-02T16:39:56.698Z,97129.50
2022-10-02T16:42:32.058Z,97149.63
2022-10-02T16:45:18.044Z,97160.50
2022-10-02T16:48:02.755Z,97150.41
2022-10-02T16:50:50.797Z,97137.28
2022-10-02T16:53:28.204Z,97177.03
2022-10-02T16:55:58.377Z,97143.59
2022-10-02T16:58:25.285Z,97140.38
2022-10-02T17:00:57.379Z,97147.16
2022-10-02T17:03:27.153Z,97167.16
2022-10-02T17:06:24.015Z,97166.38
2022-10-02T17:09:12.161Z,97162.34
2022-10-02T17:11:59.236Z,97170.97
2022-10-02T17:14:41.985Z,97176.56
2022-10-02T17:17:47.398Z,97206.47
2022-10-02T17:20:32.380Z,97180.38
2022-10-02T17:23:06.828Z,97202.47
2022-10-02T17:26:07.278Z,97218.19
2022-10-02T17:28:54.072Z,97206.38
2022-10-02T17:31:46.293Z,97237.38
2022-10-02T17:34:17.039Z,97221.47
2022-10-02T17:37:02.826Z,97229.34
2022-10-02T17:39:48.767Z,97230.69
2022-10-02T17:42:46.205Z,97225.97
2022-10-02T17:45:24.720Z,97263.16
2022-10-02T17:48:25.369Z,97254.34
2022-10-02T17:51:14.196Z,97255.94
2022-10-02T17:53:59.301Z,97251.34
2022-10-02T17:56:38.189Z,97253.72
2022-10-02T17:59:16.630Z,97270.81
2022-10-02T18:01:45.469Z,97270.75
2022-10-02T18:04:33.296Z,97288.03
2022-10-02T18:07:05.780Z,97261.72
2022-10-02T18:09:47.241Z,97261.50
2022-10-02T18:12:25.934Z,97277.91
2022-10-02T18:15:15.871Z,97304.13
2022-10-02T18:18:00.971Z,97314.56
2022-10-02T18:20:52.018Z,97318.72
2022-10-02T18:23:19.479Z,97294.69
2022-10-02T18:25:56.925Z,97285.72
2022-10-02T18:28:29.115Z,97269.38
2022-10-02T18:31:14.234Z,97235.88
2022-10-02T18:34:08.780Z,97285.00
2022-10-02T18:36:38.600Z,97296.91
2022-10-02T18:39:29.798Z,97314.69
2022-10-02T18:42:17.208Z,97314.75
2022-10-02T18:44:57.049Z,97328.19
2022-10-02T18:47:39.848Z,97350.38
2022-10-02T18:50:20.141Z,97320.69
2022-10-02T18:52:54.670Z,97340.09
2022-10-02T18:55:28.398Z,97305.59
2022-10-02T18:57:57.844Z,97313.59
2022-10-02T19:00:53.738Z,97332.50
2022-10-02T19:03:22.095Z,97323.06
2022-10-02T19:06:08.563Z,97343.09
2022-10-02T19:08:57.151Z,97326.38
2022-10-02T19:11:27.715Z,97339.28
2022-10-02T19:13:54.533Z,97337.19
2022-10-02T19:16:25.228Z,97370.88
2022-10-02T19:19:19.061Z,97380.09
2022-10-02T19:21:45.670Z,97342.38
2022-10-02T19:24:13.872Z,97328.88
2022-10-02T19:26:45.536Z,97352.06
2022-10-02T19:29:52.305Z,97355.88
2022-10-02T19:32:20.365Z,97370.50
2022-10-02T19:34:55.710Z,97333.81
2022-10-02T19:37:24.430Z,97339.00
2022-10-02T19:39:53.354Z,97347.31
2022-10-02T19:42:26.037Z,97361.84
2022-10-02T19:44:56.233Z,97352.94
2022-10-02T19:47:31.900Z,97351.63
2022-10-02T19:49:59.062Z,97336.00
2022-10-02T19:52:41.207Z,97349.50
2022-10-02T19:55:21.123Z,97347.38
2022-10-02T19:57:48.127Z,97343.72
2022-10-02T20:00:16.270Z,97349.59
2022-10-02T20:02:56.403Z,97350.88
2022-10-02T20:05:26.020Z,97369.59
2022-10-02T20:07:55.449Z,97367.47
2022-10-02T20:10:26.978Z,97356.91
2022-10-02T20:13:16.823Z,97340.56
2022-10-02T20:16:20.181Z,97369.19
2022-10-02T20:18:47.492Z,97341.75
2022-10-02T20:21:26.256Z,97360.94
2022-10-02T20:23:54.610Z,97369.03
2022-10-02T20:26:22.311Z,97380.84
2022-10-02T20:29:00.291Z,97376.22
2022-10-02T20:31:45.478Z,97395.94
2022-10-02T20:34:23.664Z,97371.88
2022-10-02T20:36:57.859Z,97384.88
2022-10-02T20:39:28.926Z,97370.28
2022-10-02T20:42:00.317Z,97378.38
2022-10-02T20:44:30.905Z,97283.06
2022-10-02T20:47:34.900Z,97402.09
2022-10-02T20:50:10.193Z,97371.16
2022-10-02T20:53:01.030Z,97380.31
2022-10-02T20:55:37.437Z,97401.41
2022-10-02T20:58:18.712Z,97408.19
2022-10-02T21:01:17.062Z,97400.38
2022-10-02T21:03:55.895Z,97418.97
2022-10-02T21:06:45.678Z,97406.59
2022-10-02T21:09:57.909Z,97409.91
2022-10-02T21:12:59.993Z,97416.38
2022-10-02T21:15:43.427Z,97421.84
2022-10-02T21:18:42.376Z,97430.25
2022-10-02T21:21:08.885Z,97418.69
2022-10-02T21:23:47.025Z,97438.41
2022-10-02T21:26:28.320Z,97455.41
2022-10-02T21:29:24.865Z,97440.63
2022-10-02T21:32:09.863Z,97459.25
2022-10-02T21:34:39.039Z,97448.69
2022-10-02T21:37:12.637Z,97459.25
2022-10-02T21:39:57.800Z,97465.19
2022-10-02T21:42:58.561Z,97480.00
2022-10-02T21:45:38.815Z,97470.63
2022-10-02T21:48:11.396Z,97492.22
2022-10-02T21:50:41.061Z,97485.50
2022-10-02T21:53:48.934Z,97482.56
2022-10-02T21:56:54.441Z,97487.19
2022-10-02T21:59:40.077Z,97489.28
2022-10-02T22:02:12.531Z,97480.97
2022-10-02T22:05:14.555Z,97474.78
2022-10-02T22:08:01.975Z,97510.63
2022-10-02T22:10:36.205Z,97489.66
2022-10-02T22:13:20.051Z,97473.47
2022-10-02T22:16:08.390Z,97493.09
2022-10-02T22:19:09.134Z,97498.25
2022-10-02T22:21:47.738Z,97490.16
2022-10-02T22:24:45.563Z,97506.31
2022-10-02T22:27:36.953Z,97480.97
2022-10-02T22:30:03.888Z,97512.75
2022-10-02T22:32:48.783Z,97513.56
2022-10-02T22:35:34.650Z,97480.97
2022-10-02T22:38:11.511Z,97520.31
2022-10-02T22:40:59.575Z,97526.78
2022-10-02T22:43:49.546Z,97517.09
2022-10-02T22:46:28.621Z,97526.75
2022-10-02T22:49:16.187Z,97555.66
2022-10-02T22:51:44.253Z,97523.28
2022-10-02T22:54:13.789Z,97528.94
2022-10-02T22:57:03.569Z,97521.41
2022-10-02T22:59:36.702Z,97506.09
2022-10-02T23:02:10.158Z,97523.59
2022-10-02T23:05:12.550Z,97539.53
2022-10-02T23:07:55.382Z,97544.31
2022-10-02T23:10:40.032Z,97531.94
2022-10-02T23:13:13.834Z,97538.78
2022-10-02T23:15:53.384Z,97545.81
2022-10-02T23:18:52.448Z,97543.38
2022-10-02T23:21:48.390Z,97540.72
2022-10-02T23:24:21.201Z,97528.34
2022-10-02T23:26:49.472Z,97545.03
2022-10-02T23:29:31.068Z,97534.81
2022-10-02T23:32:19.880Z,97564.75
2022-10-02T23:35:06.087Z,97543.47
2022-10-02T23:37:53.648Z,97554.28
2022-10-02T23:40:31.634Z,97555.09
2022-10-02T23:42:59.050Z,97587.91
2022-10-02T23:45:27.465Z,97561.31
2022-10-02T23:47:58.192Z,97559.41
2022-10-02T23:50:32.621Z,97561.28
2022-10-02T23:53:20.508Z,97544.88
2022-10-02T23:56:08.426Z,97526.56
2022-10-02T23:58:44.525Z,97540.59
